createdAt,value
2022-07-31T00:01:34.150Z,7.63
2022-07-31T00:04:02.368Z,3.60
2022-07-31T00:06:30.500Z,2.65
2022-07-31T00:08:58.723Z,3.17
2022-07-31T00:11:26.910Z,2.10
2022-07-31T00:13:58.628Z,2.17
2022-07-31T00:16:27.293Z,2.70
2022-07-31T00:18:56.431Z,3.33
2022-07-31T00:21:24.813Z,3.10
2022-07-31T00:23:53.539Z,3.20
2022-07-31T00:26:21.686Z,3.60
2022-07-31T00:28:49.915Z,2.47
2022-07-31T00:31:19.707Z,2.42
2022-07-31T00:33:47.945Z,2.08
2022-07-31T00:36:16.233Z,4.30
2022-07-31T00:38:44.569Z,3.35
2022-07-31T00:41:12.807Z,3.58
2022-07-31T00:43:41.034Z,1.90
2022-07-31T00:46:14.207Z,5.05
2022-07-31T00:48:44.194Z,2.53
2022-07-31T00:51:12.483Z,5.75
2022-07-31T00:53:40.721Z,6.80
2022-07-31T00:56:09.008Z,3.33
2022-07-31T00:58:37.230Z,5.53
2022-07-31T01:01:05.628Z,4.72
2022-07-31T01:03:34.012Z,8.38
2022-07-31T01:06:04.186Z,9.07
2022-07-31T01:08:32.889Z,11.77
2022-07-31T01:11:08.321Z,13.55
2022-07-31T01:13:42.379Z,12.40
2022-07-31T01:16:12.740Z,22.45
2022-07-31T01:18:42.297Z,16.65
2022-07-31T01:21:17.624Z,19.35
2022-07-31T01:24:23.682Z,15.20
2022-07-31T01:26:58.269Z,11.27
2022-07-31T01:29:30.777Z,9.00
2022-07-31T01:32:03.954Z,11.80
2022-07-31T01:34:38.314Z,12.23
2022-07-31T01:37:12.536Z,10.40
2022-07-31T01:39:46.517Z,9.55
2022-07-31T01:42:17.718Z,10.65
2022-07-31T01:44:52.568Z,8.93
2022-07-31T01:47:22.852Z,8.15
2022-07-31T01:49:52.887Z,21.27
2022-07-31T01:52:21.802Z,10.13
2022-07-31T01:54:52.285Z,9.80
2022-07-31T01:57:23.477Z,10.87
2022-07-31T01:59:57.120Z,8.95
2022-07-31T02:02:27.558Z,12.27
2022-07-31T02:04:56.382Z,13.20
2022-07-31T02:07:25.565Z,8.48
2022-07-31T02:09:58.446Z,6.03
2022-07-31T02:12:33.821Z,12.75
2022-07-31T02:15:05.567Z,9.73
2022-07-31T02:17:35.317Z,8.68
2022-07-31T02:20:06.945Z,7.22
2022-07-31T02:22:35.763Z,12.57
2022-07-31T02:25:04.787Z,12.38
2022-07-31T02:27:54.338Z,6.15
2022-07-31T02:30:26.738Z,4.07
2022-07-31T02:33:09.375Z,12.27
2022-07-31T02:35:39.366Z,6.22
2022-07-31T02:38:22.702Z,7.25
2022-07-31T02:40:52.412Z,8.05
2022-07-31T02:43:21.863Z,8.20
2022-07-31T02:45:51.823Z,7.05
2022-07-31T02:48:20.266Z,12.45
2022-07-31T02:50:48.773Z,6.78
2022-07-31T02:53:17.200Z,6.65
2022-07-31T02:55:45.723Z,8.38
2022-07-31T02:58:14.517Z,5.55
2022-07-31T03:00:42.890Z,3.15
2022-07-31T03:03:12.748Z,7.25
2022-07-31T03:05:41.103Z,5.78
2022-07-31T03:08:09.379Z,6.35
2022-07-31T03:10:37.645Z,9.02
2022-07-31T03:13:07.852Z,5.63
2022-07-31T03:15:37.467Z,2.63
2022-07-31T03:18:11.208Z,8.38
2022-07-31T03:20:42.889Z,13.63
2022-07-31T03:23:13.257Z,7.35
2022-07-31T03:25:42.480Z,5.63
2022-07-31T03:28:11.013Z,4.30
2022-07-31T03:30:39.518Z,3.90
2022-07-31T03:33:08.582Z,7.25
2022-07-31T03:35:39.083Z,9.30
2022-07-31T03:38:39.698Z,7.78
2022-07-31T03:41:02.759Z,2.85
2022-07-31T03:43:44.131Z,3.45
2022-07-31T03:46:18.310Z,3.30
2022-07-31T03:48:47.989Z,4.88
2022-07-31T03:51:17.363Z,3.33
2022-07-31T03:53:48.179Z,3.95
2022-07-31T03:56:17.807Z,5.63
2022-07-31T03:58:46.086Z,1.75
2022-07-31T04:01:21.074Z,4.63
2022-07-31T04:03:50.104Z,3.45
2022-07-31T04:06:18.231Z,5.05
2022-07-31T04:08:48.616Z,7.47
2022-07-31T04:11:17.707Z,5.63
2022-07-31T04:13:45.870Z,6.15
2022-07-31T04:16:13.954Z,2.28
2022-07-31T04:18:42.275Z,4.63
2022-07-31T04:21:16.083Z,2.45
2022-07-31T04:23:48.889Z,3.10
2022-07-31T04:26:25.991Z,3.20
2022-07-31T04:28:54.880Z,2.78
2022-07-31T04:31:23.065Z,4.97
2022-07-31T04:33:56.325Z,3.60
2022-07-31T04:36:30.315Z,5.93
2022-07-31T04:38:59.419Z,7.05
2022-07-31T04:41:29.658Z,5.63
2022-07-31T04:43:59.640Z,9.07
2022-07-31T04:46:28.589Z,5.00
2022-07-31T04:48:57.213Z,1.73
2022-07-31T04:51:26.048Z,5.75
2022-07-31T04:53:54.571Z,6.05
2022-07-31T04:56:36.109Z,4.15
2022-07-31T05:01:35.766Z,2.83
2022-07-31T05:04:04.025Z,2.20
2022-07-31T05:06:36.941Z,1.40
2022-07-31T05:09:09.509Z,2.08
2022-07-31T05:11:38.803Z,1.50
2022-07-31T05:14:10.143Z,1.90
2022-07-31T05:16:38.617Z,6.88
2022-07-31T05:19:13.736Z,3.20
2022-07-31T05:21:47.062Z,3.60
2022-07-31T05:24:32.774Z,1.75
2022-07-31T05:27:02.562Z,1.75
2022-07-31T05:29:32.588Z,5.13
2022-07-31T05:32:01.361Z,2.53
2022-07-31T05:34:30.912Z,1.00
2022-07-31T05:37:01.518Z,4.63
2022-07-31T05:39:30.299Z,2.70
2022-07-31T05:41:58.775Z,2.42
2022-07-31T05:44:27.041Z,4.10
2022-07-31T05:49:26.966Z,2.63
2022-07-31T05:51:55.583Z,3.10
2022-07-31T05:54:24.093Z,2.25
2022-07-31T05:56:52.418Z,3.38
2022-07-31T05:59:20.857Z,3.60
2022-07-31T06:01:49.214Z,1.35
2022-07-31T06:04:18.856Z,1.35
2022-07-31T06:06:47.084Z,7.82
2022-07-31T06:09:15.358Z,2.47
2022-07-31T06:11:43.513Z,4.80
2022-07-31T06:14:11.763Z,2.13
2022-07-31T06:16:40.014Z,2.25
2022-07-31T06:19:08.238Z,2.38
2022-07-31T06:21:37.834Z,2.88
2022-07-31T06:24:06.730Z,0.82
2022-07-31T06:26:37.347Z,1.77
2022-07-31T06:29:05.774Z,2.83
2022-07-31T06:31:33.935Z,2.20
2022-07-31T06:34:02.121Z,1.08
2022-07-31T06:36:30.334Z,0.88
2022-07-31T06:38:59.807Z,0.77
2022-07-31T06:41:47.494Z,6.32
2022-07-31T06:44:16.295Z,1.00
2022-07-31T06:46:49.049Z,0.93
2022-07-31T06:49:18.136Z,1.50
2022-07-31T06:51:46.585Z,1.70
2022-07-31T06:54:16.168Z,1.20
2022-07-31T06:56:44.477Z,0.68
2022-07-31T06:59:13.048Z,1.10
2022-07-31T07:01:41.382Z,2.42
2022-07-31T07:04:09.705Z,1.40
2022-07-31T07:06:37.967Z,1.92
2022-07-31T07:09:06.112Z,0.95
2022-07-31T07:11:35.735Z,0.80
2022-07-31T07:14:03.866Z,0.68
2022-07-31T07:16:32.087Z,0.65
2022-07-31T07:19:00.374Z,1.90
2022-07-31T07:21:28.474Z,1.35
2022-07-31T07:23:56.641Z,0.85
2022-07-31T07:26:24.832Z,1.95
2022-07-31T07:28:54.501Z,1.00
2022-07-31T07:31:22.667Z,1.00
2022-07-31T07:33:52.005Z,0.77
2022-07-31T07:36:22.971Z,0.85
2022-07-31T07:38:55.014Z,1.60
2022-07-31T07:41:24.576Z,0.80
2022-07-31T07:43:54.774Z,0.77
2022-07-31T07:46:24.109Z,0.70
2022-07-31T07:48:53.123Z,0.60
2022-07-31T07:51:21.640Z,1.50
2022-07-31T07:53:50.399Z,0.50
2022-07-31T07:56:18.713Z,0.38
2022-07-31T07:58:49.220Z,0.40
2022-07-31T08:01:19.976Z,0.57
2022-07-31T08:03:52.142Z,0.52
2022-07-31T08:06:21.674Z,0.70
2022-07-31T08:08:50.305Z,0.57
2022-07-31T08:11:18.794Z,1.00
2022-07-31T08:13:50.885Z,1.13
2022-07-31T08:16:21.739Z,2.20
2022-07-31T08:18:51.660Z,0.95
2022-07-31T08:21:20.039Z,0.63
2022-07-31T08:23:48.565Z,0.80
2022-07-31T08:26:18.629Z,1.10
2022-07-31T08:28:50.832Z,0.80
2022-07-31T08:31:21.225Z,0.57
2022-07-31T08:33:49.622Z,0.90
2022-07-31T08:36:18.212Z,3.78
2022-07-31T08:38:47.301Z,0.80
2022-07-31T08:41:15.951Z,1.52
2022-07-31T08:44:00.047Z,1.02
2022-07-31T08:46:34.703Z,1.90
2022-07-31T08:49:04.625Z,0.93
2022-07-31T08:51:51.433Z,1.88
2022-07-31T08:54:21.311Z,1.30
2022-07-31T08:56:52.629Z,1.38
2022-07-31T09:01:53.220Z,2.35
2022-07-31T09:04:21.377Z,7.93
2022-07-31T09:06:49.651Z,1.60
2022-07-31T09:09:18.754Z,1.60
2022-07-31T09:11:48.732Z,2.00
2022-07-31T09:14:26.881Z,1.70
2022-07-31T09:16:57.546Z,1.52
2022-07-31T09:19:53.867Z,2.40
2022-07-31T09:22:24.891Z,1.67
2022-07-31T09:24:54.071Z,1.67
2022-07-31T09:27:29.809Z,1.45
2022-07-31T09:29:58.850Z,4.20
2022-07-31T09:32:28.503Z,2.08
2022-07-31T09:35:07.587Z,1.98
2022-07-31T09:37:35.946Z,4.97
2022-07-31T09:40:05.044Z,2.92
2022-07-31T09:42:45.649Z,2.28
2022-07-31T09:45:22.301Z,1.70
2022-07-31T09:48:04.378Z,3.08
2022-07-31T09:50:32.565Z,1.83
2022-07-31T09:53:01.952Z,2.08
2022-07-31T09:55:30.519Z,2.30
2022-07-31T09:58:00.826Z,1.90
2022-07-31T10:00:29.592Z,1.90
2022-07-31T10:02:59.205Z,2.13
2022-07-31T10:05:29.174Z,2.28
2022-07-31T10:08:00.405Z,2.45
2022-07-31T10:10:30.328Z,2.65
2022-07-31T10:13:03.335Z,2.50
2022-07-31T10:15:34.514Z,2.97
2022-07-31T10:18:05.654Z,1.80
2022-07-31T10:20:35.805Z,3.20
2022-07-31T10:23:16.653Z,1.60
2022-07-31T10:25:53.659Z,2.17
2022-07-31T10:28:22.878Z,3.20
2022-07-31T10:30:52.149Z,2.10
2022-07-31T10:33:43.119Z,1.92
2022-07-31T10:36:13.497Z,3.05
2022-07-31T10:38:47.418Z,1.65
2022-07-31T10:41:22.586Z,1.60
2022-07-31T10:43:56.037Z,4.20
2022-07-31T10:46:34.399Z,2.30
2022-07-31T10:49:08.251Z,3.83
2022-07-31T10:51:47.821Z,2.47
2022-07-31T10:54:16.195Z,2.45
2022-07-31T10:56:47.857Z,2.03
2022-07-31T10:59:16.520Z,6.18
2022-07-31T11:01:52.514Z,4.28
2022-07-31T11:04:29.600Z,1.73
2022-07-31T11:06:57.906Z,3.03
2022-07-31T11:09:27.626Z,2.05
2022-07-31T11:11:56.495Z,2.30
2022-07-31T11:14:35.103Z,2.58
2022-07-31T11:17:04.822Z,3.95
2022-07-31T11:19:41.642Z,4.18
2022-07-31T11:22:31.644Z,1.73
2022-07-31T11:25:01.302Z,4.88
2022-07-31T11:27:32.454Z,1.42
2022-07-31T11:30:12.519Z,6.70
2022-07-31T11:32:41.806Z,7.27
2022-07-31T11:35:11.489Z,4.07
2022-07-31T11:37:57.035Z,1.40
2022-07-31T11:40:28.233Z,5.38
2022-07-31T11:45:49.901Z,5.10
2022-07-31T11:48:20.032Z,2.70
2022-07-31T11:50:51.457Z,1.73
2022-07-31T11:55:50.624Z,2.65
2022-07-31T11:58:20.757Z,1.63
2022-07-31T12:00:53.377Z,1.42
2022-07-31T12:03:23.822Z,6.30
2022-07-31T12:05:54.540Z,3.10
2022-07-31T12:08:24.395Z,3.70
2022-07-31T12:10:55.014Z,10.60
2022-07-31T12:13:25.322Z,1.87
2022-07-31T12:15:58.309Z,4.03
2022-07-31T12:18:30.245Z,4.53
2022-07-31T12:21:01.726Z,1.92
2022-07-31T12:23:41.955Z,1.35
2022-07-31T12:26:13.813Z,3.80
2022-07-31T12:28:42.188Z,6.82
2022-07-31T12:31:10.330Z,2.88
2022-07-31T12:33:43.011Z,1.88
2022-07-31T12:36:27.643Z,2.60
2022-07-31T12:39:04.101Z,2.47
2022-07-31T12:41:42.072Z,3.63
2022-07-31T12:44:14.876Z,2.28
2022-07-31T12:46:49.689Z,4.07
2022-07-31T12:49:18.095Z,4.38
2022-07-31T12:51:48.085Z,1.98
2022-07-31T12:54:17.063Z,4.45
2022-07-31T12:56:46.784Z,2.47
2022-07-31T12:59:16.181Z,3.72
2022-07-31T13:01:44.557Z,2.55
2022-07-31T13:04:18.663Z,4.40
2022-07-31T13:06:51.837Z,2.65
2022-07-31T13:09:20.736Z,2.83
2022-07-31T13:11:51.329Z,4.28
2022-07-31T13:14:23.621Z,3.80
2022-07-31T13:16:53.422Z,5.32
2022-07-31T13:19:22.447Z,1.98
2022-07-31T13:21:52.139Z,4.07
2022-07-31T13:24:25.022Z,2.45
2022-07-31T13:26:53.226Z,3.70
2022-07-31T13:29:21.930Z,4.93
2022-07-31T13:31:50.244Z,3.60
2022-07-31T13:34:18.454Z,4.32
2022-07-31T13:36:46.700Z,2.90
2022-07-31T13:39:16.646Z,5.70
2022-07-31T13:41:44.915Z,1.90
2022-07-31T13:44:13.182Z,2.15
2022-07-31T13:46:41.467Z,7.72
2022-07-31T13:49:10.749Z,3.63
2022-07-31T13:51:39.862Z,2.08
2022-07-31T13:54:08.662Z,3.92
2022-07-31T13:56:42.878Z,4.05
2022-07-31T13:59:13.189Z,7.43
2022-07-31T14:02:05.152Z,5.60
2022-07-31T14:04:32.850Z,2.45
2022-07-31T14:07:07.516Z,1.75
2022-07-31T14:09:36.144Z,3.20
2022-07-31T14:12:06.594Z,3.30
2022-07-31T14:14:35.596Z,7.43
2022-07-31T14:17:03.903Z,4.32
2022-07-31T14:19:44.059Z,6.50
2022-07-31T14:22:14.436Z,4.07
2022-07-31T14:24:50.542Z,10.32
2022-07-31T14:27:21.849Z,3.88
2022-07-31T14:29:50.502Z,2.55
2022-07-31T14:32:19.517Z,2.40
2022-07-31T14:34:48.008Z,8.57
2022-07-31T14:37:16.288Z,3.00
2022-07-31T14:39:44.654Z,2.40
2022-07-31T14:42:13.524Z,3.95
2022-07-31T14:44:43.397Z,2.58
2022-07-31T14:47:12.490Z,2.40
2022-07-31T14:50:06.837Z,1.67
2022-07-31T14:52:29.742Z,3.67
2022-07-31T14:54:59.951Z,2.17
2022-07-31T14:57:28.464Z,1.00
2022-07-31T14:59:58.180Z,2.53
2022-07-31T15:02:26.671Z,2.33
2022-07-31T15:04:55.218Z,1.50
2022-07-31T15:07:45.908Z,2.70
2022-07-31T15:10:13.389Z,3.15
2022-07-31T15:12:42.147Z,2.83
2022-07-31T15:15:12.751Z,3.10
2022-07-31T15:17:40.979Z,1.03
2022-07-31T15:20:09.930Z,3.83
2022-07-31T15:22:38.276Z,1.98
2022-07-31T15:25:07.516Z,4.95
2022-07-31T15:27:35.829Z,1.67
2022-07-31T15:30:07.831Z,1.65
2022-07-31T15:32:39.564Z,4.05
2022-07-31T15:37:38.192Z,0.77
2022-07-31T15:40:09.120Z,5.07
2022-07-31T15:42:40.835Z,2.47
2022-07-31T15:45:11.115Z,0.73
2022-07-31T15:47:42.135Z,1.75
2022-07-31T15:50:12.083Z,1.17
2022-07-31T15:52:41.293Z,0.85
2022-07-31T15:55:11.651Z,2.28
2022-07-31T15:57:39.969Z,0.82
2022-07-31T16:00:10.778Z,3.13
2022-07-31T16:02:41.640Z,2.92
2022-07-31T16:05:21.552Z,3.22
2022-07-31T16:08:32.495Z,3.22
2022-07-31T16:10:54.021Z,0.70
2022-07-31T16:13:22.596Z,2.67
2022-07-31T16:15:50.828Z,1.30
2022-07-31T16:18:20.977Z,2.40
2022-07-31T16:20:49.852Z,5.00
2022-07-31T16:23:18.221Z,6.47
2022-07-31T16:25:46.387Z,1.50
2022-07-31T16:28:15.166Z,4.07
2022-07-31T16:30:43.966Z,4.05
2022-07-31T16:33:12.176Z,5.25
2022-07-31T16:35:41.780Z,5.03
2022-07-31T16:38:10.026Z,5.40
2022-07-31T16:40:38.212Z,1.85
2022-07-31T16:43:50.247Z,3.15
2022-07-31T16:45:57.953Z,4.03
2022-07-31T16:48:26.321Z,4.68
2022-07-31T16:50:55.972Z,4.53
2022-07-31T16:54:11.442Z,2.55
2022-07-31T16:56:13.379Z,1.67
2022-07-31T16:58:41.614Z,2.08
2022-07-31T17:01:57.312Z,1.88
2022-07-31T17:04:01.809Z,4.47
2022-07-31T17:06:34.415Z,0.90
2022-07-31T17:09:17.405Z,6.07
2022-07-31T17:11:48.435Z,7.93
2022-07-31T17:14:17.517Z,6.13
2022-07-31T17:16:48.424Z,3.13
2022-07-31T17:22:07.875Z,2.35
2022-07-31T17:24:37.616Z,1.83
2022-07-31T17:27:07.231Z,4.25
2022-07-31T17:29:35.994Z,1.10
2022-07-31T17:32:04.595Z,3.15
2022-07-31T17:34:32.784Z,0.85
2022-07-31T17:37:01.450Z,2.45
2022-07-31T17:39:31.332Z,1.05
2022-07-31T17:41:59.667Z,0.88
2022-07-31T17:44:27.865Z,0.52
2022-07-31T17:47:03.421Z,2.83
2022-07-31T17:49:34.001Z,2.03
2022-07-31T17:52:02.263Z,2.25
2022-07-31T17:54:32.859Z,2.28
2022-07-31T17:57:01.440Z,2.63
2022-07-31T17:59:29.850Z,0.73
2022-07-31T18:02:00.864Z,1.63
2022-07-31T18:04:31.015Z,1.48
2022-07-31T18:07:00.784Z,4.00
2022-07-31T18:09:29.809Z,4.68
2022-07-31T18:11:59.695Z,0.90
2022-07-31T18:14:28.059Z,4.47
2022-07-31T18:16:56.383Z,3.25
2022-07-31T18:19:24.710Z,1.77
2022-07-31T18:21:53.100Z,1.23
2022-07-31T18:24:21.653Z,3.50
2022-07-31T18:26:50.609Z,1.67
2022-07-31T18:29:20.233Z,2.42
2022-07-31T18:31:48.799Z,1.55
2022-07-31T18:34:17.306Z,1.63
2022-07-31T18:36:45.408Z,0.80
2022-07-31T18:39:13.621Z,2.28
2022-07-31T18:41:46.854Z,1.83
2022-07-31T18:44:17.064Z,0.80
2022-07-31T18:46:46.780Z,1.88
2022-07-31T18:51:01.845Z,1.52
2022-07-31T18:52:03.679Z,0.95
2022-07-31T18:54:32.380Z,1.60
2022-07-31T18:57:01.013Z,3.67
2022-07-31T18:59:29.141Z,6.68
2022-07-31T19:01:59.490Z,2.20
2022-07-31T19:04:27.797Z,1.98
2022-07-31T19:06:56.307Z,1.63
2022-07-31T19:09:25.404Z,1.40
2022-07-31T19:11:55.860Z,1.88
2022-07-31T19:14:26.946Z,2.45
2022-07-31T19:16:57.995Z,2.42
2022-07-31T19:19:54.406Z,3.20
2022-07-31T19:22:16.361Z,2.80
2022-07-31T19:24:44.589Z,2.28
2022-07-31T19:27:12.776Z,2.92
2022-07-31T19:29:41.652Z,2.53
2022-07-31T19:32:09.840Z,1.83
2022-07-31T19:34:39.897Z,2.42
2022-07-31T19:37:16.455Z,5.45
2022-07-31T19:39:44.713Z,1.65
2022-07-31T19:42:13.258Z,1.38
2022-07-31T19:44:41.768Z,2.28
2022-07-31T19:47:10.000Z,2.47
2022-07-31T19:49:41.288Z,2.97
2022-07-31T19:52:10.009Z,5.10
2022-07-31T19:54:40.018Z,2.95
2022-07-31T19:57:08.379Z,2.38
2022-07-31T19:59:36.991Z,5.07
2022-07-31T20:02:05.944Z,9.07
2022-07-31T20:04:36.667Z,1.20
2022-07-31T20:07:06.479Z,1.70
2022-07-31T20:09:34.925Z,2.65
2022-07-31T20:12:03.549Z,1.65
2022-07-31T20:14:31.872Z,4.10
2022-07-31T20:17:00.690Z,3.03
2022-07-31T20:19:29.070Z,9.65
2022-07-31T20:21:57.628Z,4.38
2022-07-31T20:24:28.010Z,8.02
2022-07-31T20:26:56.181Z,6.05
2022-07-31T20:29:25.135Z,1.85
2022-07-31T20:31:53.595Z,4.78
2022-07-31T20:34:22.587Z,3.45
2022-07-31T20:36:51.027Z,9.52
2022-07-31T20:39:20.862Z,5.10
2022-07-31T20:41:53.226Z,3.15
2022-07-31T20:44:21.604Z,3.25
2022-07-31T20:46:51.431Z,7.93
2022-07-31T20:49:35.098Z,7.82
2022-07-31T20:52:04.607Z,8.60
2022-07-31T20:54:34.066Z,8.63
2022-07-31T20:57:04.497Z,6.07
2022-07-31T20:59:32.750Z,8.13
2022-07-31T21:02:01.045Z,6.40
2022-07-31T21:04:29.334Z,2.92
2022-07-31T21:06:58.069Z,8.52
2022-07-31T21:09:26.296Z,6.95
2022-07-31T21:11:54.874Z,5.35
2022-07-31T21:14:24.520Z,4.45
2022-07-31T21:16:52.764Z,3.05
2022-07-31T21:19:21.185Z,4.32
2022-07-31T21:21:50.912Z,5.65
2022-07-31T21:24:19.702Z,2.97
2022-07-31T21:26:51.964Z,3.42
2022-07-31T21:29:22.286Z,2.40
2022-07-31T21:31:52.823Z,4.45
2022-07-31T21:34:21.625Z,6.07
2022-07-31T21:36:50.411Z,4.20
2022-07-31T21:39:19.740Z,4.18
2022-07-31T21:41:48.435Z,3.85
2022-07-31T21:44:18.660Z,2.97
2022-07-31T21:46:51.605Z,5.43
2022-07-31T21:49:23.484Z,6.28
2022-07-31T21:51:52.299Z,3.25
2022-07-31T21:54:20.455Z,4.32
2022-07-31T21:56:48.743Z,1.60
2022-07-31T21:59:17.161Z,5.97
2022-07-31T22:01:58.113Z,2.00
2022-07-31T22:04:34.556Z,2.13
2022-07-31T22:07:20.941Z,6.70
2022-07-31T22:09:50.011Z,7.43
2022-07-31T22:12:18.249Z,4.53
2022-07-31T22:14:46.769Z,3.78
2022-07-31T22:17:14.956Z,3.17
2022-07-31T22:19:47.480Z,3.25
2022-07-31T22:22:16.843Z,2.78
2022-07-31T22:24:45.500Z,7.15
2022-07-31T22:27:32.100Z,6.78
2022-07-31T22:30:01.672Z,7.03
2022-07-31T22:32:30.405Z,7.07
2022-07-31T22:35:00.127Z,2.85
2022-07-31T22:37:29.309Z,5.05
2022-07-31T22:39:59.461Z,5.22
2022-07-31T22:42:28.753Z,3.90
2022-07-31T22:44:58.282Z,5.05
2022-07-31T22:47:27.545Z,3.13
2022-07-31T22:49:56.423Z,5.43
2022-07-31T22:52:33.219Z,3.30
2022-07-31T22:55:06.237Z,7.55
2022-07-31T22:57:34.607Z,5.68
2022-07-31T23:00:03.192Z,3.72
2022-07-31T23:02:31.449Z,5.82
2022-07-31T23:04:59.644Z,7.50
2022-07-31T23:07:29.237Z,4.82
2022-07-31T23:09:57.549Z,3.72
2022-07-31T23:12:28.205Z,5.10
2022-07-31T23:14:57.378Z,3.15
2022-07-31T23:17:25.652Z,4.05
2022-07-31T23:19:54.728Z,3.30
2022-07-31T23:22:33.031Z,2.53
2022-07-31T23:25:03.690Z,3.00
2022-07-31T23:27:32.118Z,9.00
2022-07-31T23:30:00.484Z,2.05
2022-07-31T23:32:29.077Z,3.10
2022-07-31T23:34:57.328Z,2.20
2022-07-31T23:37:25.580Z,6.25
2022-07-31T23:39:54.242Z,2.83
2022-07-31T23:42:41.783Z,5.15
2022-07-31T23:45:14.454Z,2.33
2022-07-31T23:47:45.454Z,1.50
2022-07-31T23:50:15.670Z,2.45
2022-07-31T23:52:43.867Z,1.80
2022-07-31T23:55:12.244Z,6.57
2022-07-31T23:57:42.596Z,1.67
